Manuel Derqui, Argentina
Current Conditions -  °F | °C
As of 2:00 PM on Tuesday 21 Oct 2014 (Local Time) from SARC Reporting Station
Clear Clear  
Wind Chill: 90°   Ceiling: Unl
Heat Index: 90°   Visibility: 6mi
Dew Point: 48°   Wind: 9mph
Humidity: 24%   Direction: 110°ESE
Pressure: 30.03"   Gusts: NA
Location:  27.83°S, 58.8°W
Report Text: SARC 211700Z 11008KT CAVOK 32/09 Q1017
Loading
Personal Weather Stations






























Interactive Weather Map New forecast layout! Learn more

10-Day Weather Forecast

Advertisements
Track Severe Weather on mobile